Jawor — C6YH8 — position and weather

sailwx.info

Track history (hours):
 
Tides and Currents Weather Stations Pressure Air Temp Water Temp Dewpoint Dewpoint Depression Visibility Wind Speed Wind Dir Waves Ship Positions

Jawor

Last reported at 2016-Aug-18 10:32 UTC. Time now 2016-Aug-24 18:01 UTC.
Position N 25°55' W 079°26'.

Length 229 m; draft 7.6 m.

Type: Cargo ship. MMSI: 311034100.

Date/timePositionNaut miles runAvg speedWind from/ knotsBaromVisibWave heightAir tempDewpointWater temp
2016-Aug-18 10:32N 25°55' W 079°26'1111.3
2016-Aug-18 09:33N 26°05' W 079°21'  
2016-Aug-10 10:22N 35°04' W 032°52'1312.3
2016-Aug-10 09:18N 35°07' W 032°36'1512.4
2016-Aug-10 08:07N 35°10' W 032°19'812.4
2016-Aug-10 07:27N 35°12' W 032°09'1712.6
2016-Aug-10 06:05N 35°16' W 031°49'712.6
2016-Aug-10 05:33N 35°18' W 031°41'1312.5
2016-Aug-10 04:29N 35°20' W 031°25'2412.4
2016-Aug-10 02:31N 35°27' W 030°56'1312.6
2016-Aug-10 01:28N 35°30' W 030°40'1212.5
2016-Aug-10 00:32N 35°32' W 030°26'1212.8
2016-Aug-09 23:33N 35°35' W 030°11'1512.9
2016-Aug-09 22:25N 35°39' W 029°53'1113.1
2016-Aug-09 21:33N 35°42' W 029°40'1413.6
2016-Aug-09 20:33N 35°45' W 029°24'1313.1
2016-Aug-09 19:33N 35°48' W 029°08'1313.0
2016-Aug-09 18:33N 35°51' W 028°52'1313.1
2016-Aug-09 17:34N 35°54' W 028°36'1312.8
2016-Aug-09 16:33N 35°57' W 028°21'1312.8
2016-Aug-09 15:33N 35°60' W 028°06'1212.4
2016-Aug-09 14:33N 36°03' W 027°51'1312.9
2016-Aug-09 13:33N 36°06' W 027°35'1313.0
2016-Aug-09 12:33N 36°10' W 027°20'1313.1
2016-Aug-09 11:33N 36°13' W 027°04'1313.1
2016-Aug-09 10:33N 36°15' W 026°48'1313.4
2016-Aug-09 09:33N 36°18' W 026°32'1312.9
2016-Aug-09 08:34N 36°21' W 026°17'1312.9
2016-Aug-09 07:34N 36°25' W 026°01'1313.0
2016-Aug-09 06:33N 36°28' W 025°45'1313.3
2016-Aug-09 05:33N 36°30' W 025°29'1313.2
2016-Aug-09 04:33N 36°34' W 025°13'1413.4
2016-Aug-09 03:33N 36°37' W 024°57'1313.3
2016-Aug-09 02:33N 36°40' W 024°41'1313.4
2016-Aug-09 01:33N 36°43' W 024°25'1313.1
2016-Aug-09 00:33N 36°46' W 024°09'1313.0
2016-Aug-08 23:33N 36°50' W 023°53'1312.7
2016-Aug-08 22:32N 36°51' W 023°37'1313.1
2016-Aug-08 21:33N 36°51' W 023°21'1313.0
2016-Aug-08 20:33N 36°51' W 023°05'1313.1
2016-Aug-08 19:34N 36°51' W 022°49'1313.3
2016-Aug-08 18:33N 36°51' W 022°32'1313.1
2016-Aug-08 17:33N 36°52' W 022°15'1312.9
2016-Aug-08 16:33N 36°52' W 021°59'1313.0
2016-Aug-08 15:33N 36°52' W 021°43'1312.9
2016-Aug-08 14:32N 36°52' W 021°27'1512.9
2016-Aug-08 13:24N 36°52' W 021°08'1112.7
2016-Aug-08 12:33N 36°51' W 020°55'1312.8
2016-Aug-08 11:34N 36°51' W 020°39'1312.8
2016-Aug-08 10:33N 36°51' W 020°23'  
Track history (hours):
 
Tides and Currents Weather Stations Pressure Air Temp Water Temp Dewpoint Dewpoint Depression Visibility Wind Speed Wind Dir Waves Ship Positions

Jawor

Last reported at 2016-Aug-18 10:32 UTC. Time now 2016-Aug-24 18:01 UTC.
Position N 25°55' W 079°26'.

Length 229 m; draft 7.6 m.

Type: Cargo ship. MMSI: 311034100.

Date/timePositionNaut miles runAvg speedWind from/ knotsBaromVisibWave heightAir tempDewpointWater temp
2016-Aug-18 10:32N 25°55' W 079°26'1111.3
2016-Aug-18 09:33N 26°05' W 079°21'  
2016-Aug-10 10:22N 35°04' W 032°52'1312.3
2016-Aug-10 09:18N 35°07' W 032°36'1512.4
2016-Aug-10 08:07N 35°10' W 032°19'812.4
2016-Aug-10 07:27N 35°12' W 032°09'1712.6
2016-Aug-10 06:05N 35°16' W 031°49'712.6
2016-Aug-10 05:33N 35°18' W 031°41'1312.5
2016-Aug-10 04:29N 35°20' W 031°25'2412.4
2016-Aug-10 02:31N 35°27' W 030°56'1312.6
2016-Aug-10 01:28N 35°30' W 030°40'1212.5
2016-Aug-10 00:32N 35°32' W 030°26'1212.8
2016-Aug-09 23:33N 35°35' W 030°11'1512.9
2016-Aug-09 22:25N 35°39' W 029°53'1113.1
2016-Aug-09 21:33N 35°42' W 029°40'1413.6
2016-Aug-09 20:33N 35°45' W 029°24'1313.1
2016-Aug-09 19:33N 35°48' W 029°08'1313.0
2016-Aug-09 18:33N 35°51' W 028°52'1313.1
2016-Aug-09 17:34N 35°54' W 028°36'1312.8
2016-Aug-09 16:33N 35°57' W 028°21'1312.8
2016-Aug-09 15:33N 35°60' W 028°06'1212.4
2016-Aug-09 14:33N 36°03' W 027°51'1312.9
2016-Aug-09 13:33N 36°06' W 027°35'1313.0
2016-Aug-09 12:33N 36°10' W 027°20'1313.1
2016-Aug-09 11:33N 36°13' W 027°04'1313.1
2016-Aug-09 10:33N 36°15' W 026°48'1313.4
2016-Aug-09 09:33N 36°18' W 026°32'1312.9
2016-Aug-09 08:34N 36°21' W 026°17'1312.9
2016-Aug-09 07:34N 36°25' W 026°01'1313.0
2016-Aug-09 06:33N 36°28' W 025°45'1313.3
2016-Aug-09 05:33N 36°30' W 025°29'1313.2
2016-Aug-09 04:33N 36°34' W 025°13'1413.4
2016-Aug-09 03:33N 36°37' W 024°57'1313.3
2016-Aug-09 02:33N 36°40' W 024°41'1313.4
2016-Aug-09 01:33N 36°43' W 024°25'1313.1
2016-Aug-09 00:33N 36°46' W 024°09'1313.0
2016-Aug-08 23:33N 36°50' W 023°53'1312.7
2016-Aug-08 22:32N 36°51' W 023°37'1313.1
2016-Aug-08 21:33N 36°51' W 023°21'1313.0
2016-Aug-08 20:33N 36°51' W 023°05'1313.1
2016-Aug-08 19:34N 36°51' W 022°49'1313.3
2016-Aug-08 18:33N 36°51' W 022°32'1313.1
2016-Aug-08 17:33N 36°52' W 022°15'1312.9
2016-Aug-08 16:33N 36°52' W 021°59'1313.0
2016-Aug-08 15:33N 36°52' W 021°43'1312.9
2016-Aug-08 14:32N 36°52' W 021°27'1512.9
2016-Aug-08 13:24N 36°52' W 021°08'1112.7
2016-Aug-08 12:33N 36°51' W 020°55'1312.8
2016-Aug-08 11:34N 36°51' W 020°39'1312.8
2016-Aug-08 10:33N 36°51' W 020°23'  

Dump ship's entire track history